Big Bear Station Historical Data
Daily Summary for January 3, 2017 Units:  English    Metric   Both
« Previous Day
Next Day »
Daily Weekly Monthly Yearly Custom
  High: Low: Average:
Temperature: 41.5 °F 25.0 °F 33.3 °F
Dew Point: 31.5 °F 19.3 °F 26.2 °F
Humidity: 87 % 63 % 75 %
Wind Speed: 3.7 mph 0.0 mph 0.9 mph
Wind Gust: -999.0 mph - -
Wind:- - WSW
Pressure: 23.50 in 23.44 in -
Precipitation: 0.43 in    
Historical Graphs
 
 
Tabular Data for January 3, 2017
Time Temperature Dew Point Pressure Wind Wind Speed Wind Gust Humidity Rainfall Rate (Hourly)
00:08 25.7 °F 20.1 °F 23.44 in Calm   -999.0 mph 79 % 0 in
00:23 25.3 °F 19.7 °F 23.44 in Calm   -999.0 mph 79 % 0 in
00:38 25.0 °F 19.7 °F 23.44 in Calm   -999.0 mph 80 % 0 in
00:53 25.3 °F 19.4 °F 23.45 in Calm   -999.0 mph 78 % 0 in
01:09 25.5 °F 19.3 °F 23.45 in Calm   -999.0 mph 77 % 0 in
01:24 25.5 °F 19.6 °F 23.46 in Calm   -999.0 mph 78 % 0 in
01:39 26.8 °F 19.3 °F 23.46 in Calm   -999.0 mph 73 % 0 in
01:54 25.9 °F 20.9 °F 23.46 in Calm   -999.0 mph 81 % 0 in
02:09 25.5 °F 20.2 °F 23.46 in Calm   -999.0 mph 80 % 0 in
02:25 25.5 °F 20.2 °F 23.46 in Calm   -999.0 mph 80 % 0 in
02:40 27.0 °F 20.4 °F 23.45 in Calm   -999.0 mph 76 % 0 in
02:55 27.3 °F 21.3 °F 23.46 in Calm   -999.0 mph 78 % 0 in
03:10 27.3 °F 20.4 °F 23.46 in Calm   -999.0 mph 75 % 0 in
03:26 27.1 °F 21.2 °F 23.46 in Calm   -999.0 mph 78 % 0 in
03:41 26.8 °F 22.3 °F 23.45 in Calm   -999.0 mph 83 % 0 in
03:56 27.1 °F 23.2 °F 23.45 in Calm   -999.0 mph 85 % 0 in
04:11 27.0 °F 23.6 °F 23.45 in Calm   -999.0 mph 87 % 0 in
04:26 27.1 °F 22.9 °F 23.45 in Calm   -999.0 mph 84 % 0 in
04:42 27.3 °F 22.8 °F 23.45 in Calm   -999.0 mph 83 % 0 in
04:57 28.4 °F 22.4 °F 23.45 in Calm   -999.0 mph 78 % 0 in
05:12 29.1 °F 22.5 °F 23.45 in Calm   -999.0 mph 76 % 0 in
05:27 29.1 °F 23.1 °F 23.45 in Calm   -999.0 mph 78 % 0 in
05:42 28.9 °F 22.3 °F 23.45 in Calm   -999.0 mph 76 % 0 in
05:58 28.8 °F 23.7 °F 23.45 in Calm   -999.0 mph 81 % 0 in
06:13 28.9 °F 23.5 °F 23.46 in Calm   -999.0 mph 80 % 0 in
06:28 28.9 °F 22.0 °F 23.46 in Calm   -999.0 mph 75 % 0 in
06:43 28.6 °F 22.3 °F 23.46 in Calm   -999.0 mph 77 % 0 in
06:58 29.1 °F 20.9 °F 23.46 in Calm   -999.0 mph 71 % 0 in
07:14 28.6 °F 22.9 °F 23.46 in Calm   -999.0 mph 79 % 0 in
07:29 28.4 °F 22.7 °F 23.47 in Calm   -999.0 mph 79 % 0 in
07:44 28.6 °F 23.8 °F 23.47 in Calm   -999.0 mph 82 % 0 in
07:59 28.9 °F 23.8 °F 23.46 in Calm   -999.0 mph 81 % 0 in
08:14 30.2 °F 25.1 °F 23.47 in Calm   -999.0 mph 81 % 0 in
08:30 30.7 °F 26.4 °F 23.47 in Calm   -999.0 mph 84 % 0 in
08:45 33.3 °F 27.2 °F 23.47 in Calm   -999.0 mph 78 % 0 in
09:00 35.1 °F 28.3 °F 23.48 in Calm   -999.0 mph 76 % 0 in
09:15 36.7 °F 28.5 °F 23.48 in Calm   -999.0 mph 72 % 0 in
09:31 37.2 °F 29.0 °F 23.48 in Calm   -999.0 mph 72 % 0 in
09:46 37.4 °F 28.9 °F 23.48 in Calm   -999.0 mph 71 % 0 in
10:01 38.3 °F 29.4 °F 23.49 in Calm   -999.0 mph 70 % 0 in
10:16 39.0 °F 29.7 °F 23.49 in Calm   -999.0 mph 69 % 0 in
10:31 39.6 °F 29.5 °F 23.48 in Calm   -999.0 mph 67 % 0 in
10:47 38.8 °F 28.8 °F 23.49 in Calm   -999.0 mph 67 % 0 in
11:02 39.9 °F 29.8 °F 23.48 in Calm   -999.0 mph 67 % 0 in
11:17 40.8 °F 30.3 °F 23.48 in WNW 1.1 mph -999.0 mph 66 % 0 in
11:32 40.8 °F 29.6 °F 23.47 in NW 2.2 mph -999.0 mph 64 % 0 in
11:47 41.4 °F 30.1 °F 23.47 in Calm   -999.0 mph 64 % 0 in
12:03 41.4 °F 30.1 °F 23.46 in ESE 1.7 mph -999.0 mph 64 % 0 in
12:18 41.4 °F 29.7 °F 23.46 in Calm   -999.0 mph 63 % 0 in
12:33 41.5 °F 30.2 °F 23.46 in North 2.2 mph -999.0 mph 64 % 0 in
12:48 40.6 °F 29.8 °F 23.46 in NW 3.2 mph -999.0 mph 65 % 0 in
13:03 40.1 °F 29.3 °F 23.45 in NW 3.2 mph -999.0 mph 65 % 0 in
13:19 40.5 °F 30.0 °F 23.45 in NW 3.7 mph -999.0 mph 66 % 0 in
13:34 40.3 °F 29.8 °F 23.45 in NNW 2.7 mph -999.0 mph 66 % 0 in
13:49 41.0 °F 30.5 °F 23.45 in NW 2.7 mph -999.0 mph 66 % 0 in
14:04 40.6 °F 30.5 °F 23.45 in South 2.2 mph -999.0 mph 67 % 0 in
14:20 40.5 °F 31.1 °F 23.44 in NW 1.1 mph -999.0 mph 69 % 0 in
14:35 40.1 °F 31.5 °F 23.44 in NNW 1.1 mph -999.0 mph 71 % 0 in
14:50 39.6 °F 31.0 °F 23.44 in Calm   -999.0 mph 71 % 0 in
15:05 39.4 °F 31.1 °F 23.45 in North 1.1 mph -999.0 mph 72 % 0 in
15:20 38.7 °F 30.5 °F 23.45 in NNE 1.7 mph -999.0 mph 72 % 0 in
15:36 37.9 °F 30.4 °F 23.45 in West 2.2 mph -999.0 mph 74 % 0 in
15:51 37.2 °F 30.3 °F 23.45 in Calm   -999.0 mph 76 % 0 in
16:06 36.9 °F 29.7 °F 23.46 in Calm   -999.0 mph 75 % 0 in
16:21 36.5 °F 29.0 °F 23.46 in Calm   -999.0 mph 74 % 0 in
16:36 36.0 °F 28.5 °F 23.46 in Calm   -999.0 mph 74 % 0 in
16:52 35.6 °F 28.5 °F 23.45 in Calm   -999.0 mph 75 % 0 in
17:07 36.0 °F 27.8 °F 23.45 in Calm   -999.0 mph 72 % 0 in
17:22 35.6 °F 28.1 °F 23.45 in ESE 1.1 mph -999.0 mph 74 % 0 in
17:37 35.1 °F 28.0 °F 23.45 in ENE 2.2 mph -999.0 mph 75 % 0 in
17:52 34.5 °F 28.0 °F 23.46 in Calm   -999.0 mph 77 % 0 in
18:08 34.3 °F 28.2 °F 23.46 in Calm   -999.0 mph 78 % 0 in
18:23 34.7 °F 27.9 °F 23.47 in East 1.7 mph -999.0 mph 76 % 0 in
18:38 34.2 °F 27.7 °F 23.47 in NW 2.2 mph -999.0 mph 77 % 0 in
18:53 34.3 °F 27.8 °F 23.47 in West 2.2 mph -999.0 mph 77 % 0 in
19:09 34.5 °F 27.4 °F 23.48 in WNW 2.2 mph -999.0 mph 75 % 0 in
19:24 34.2 °F 27.4 °F 23.47 in ENE 2.7 mph -999.0 mph 76 % 0 in
19:39 33.6 °F 27.2 °F 23.48 in NE 1.7 mph -999.0 mph 77 % 0 in
19:54 33.4 °F 27.3 °F 23.48 in SSE 1.1 mph -999.0 mph 78 % 0 in
20:09 32.7 °F 26.6 °F 23.48 in Calm   -999.0 mph 78 % 0 in
20:25 32.4 °F 26.9 °F 23.48 in West 2.7 mph -999.0 mph 80 % 0 in
20:40 32.4 °F 26.6 °F 23.48 in NNE 1.7 mph -999.0 mph 79 % 0 in
20:55 32.9 °F 27.1 °F 23.49 in West 2.7 mph -999.0 mph 79 % 0 in
21:10 32.9 °F 26.8 °F 23.49 in Calm   -999.0 mph 78 % 0 in
21:25 32.7 °F 26.6 °F 23.48 in South 1.7 mph -999.0 mph 78 % 0 in
21:41 33.1 °F 26.7 °F 23.49 in Calm   -999.0 mph 77 % 0 in
21:56 32.9 °F 26.5 °F 23.49 in WNW 1.7 mph -999.0 mph 77 % 0 in
22:11 32.9 °F 26.8 °F 23.50 in NW 3.7 mph -999.0 mph 78 % 0 in
22:26 33.3 °F 26.9 °F 23.50 in NW 3.7 mph -999.0 mph 77 % 0 in
22:41 33.4 °F 27.0 °F 23.49 in NW 2.7 mph -999.0 mph 77 % 0 in
22:57 33.6 °F 26.8 °F 23.50 in WNW 2.2 mph -999.0 mph 76 % 0 in
23:12 33.6 °F 26.8 °F 23.50 in ESE 1.1 mph -999.0 mph 76 % 0 in
23:27 34.7 °F 26.9 °F 23.50 in NW 3.7 mph -999.0 mph 73 % 0 in
23:42 34.3 °F 26.5 °F 23.49 in NNW 2.7 mph -999.0 mph 73 % 0 in
23:57 34.3 °F 26.5 °F 23.49 in West 1.7 mph -999.0 mph 73 % 0 in
Big Bear CA Weather
Compliments of Weather Underground - 1.5 mb